Time;durP1;ratioP1;P1;durP2;ratioP2;P2;SDS_P1;SDS_P2;PMS_P1;PMS_P2;Temp;Humidity;BMP_temperature;BMP_pressure;BME280_temperature;BME280_humidity;BME280_pressure;Samples;Min_cycle;Max_cycle;Signal;HPM_P1;HPM_P2
2024/02/18 00:02:06;;;;;;;20.08;13.27;;;;;;;5.29;51.40;94869.28;5050168;28;20033;-75
2024/02/18 00:04:32;;;;;;;22.35;14.85;;;;;;;5.24;51.60;94863.97;5050139;28;20030;-75
2024/02/18 00:06:57;;;;;;;21.23;13.95;;;;;;;5.23;51.67;94861.59;5050058;28;20037;-75
2024/02/18 00:09:23;;;;;;;21.67;13.57;;;;;;;5.17;51.26;94862.63;5050077;28;20477;-75
2024/02/18 00:11:49;;;;;;;20.00;13.00;;;;;;;5.16;51.26;94858.38;5050122;28;20029;-75
2024/02/18 00:14:14;;;;;;;21.33;13.77;;;;;;;5.19;51.49;94871.09;5050559;28;20100;-75
2024/02/18 00:16:40;;;;;;;23.48;14.43;;;;;;;5.09;51.43;94846.19;5050059;28;20029;-75
2024/02/18 00:19:05;;;;;;;21.40;15.13;;;;;;;5.26;51.46;94869.81;5049965;28;20040;-75
2024/02/18 00:21:31;;;;;;;19.60;14.00;;;;;;;5.37;51.57;94875.94;5049808;28;20060;-76
2024/02/18 00:23:56;;;;;;;21.25;14.45;;;;;;;5.39;50.94;94865.91;5050182;28;20067;-75
2024/02/18 00:26:22;;;;;;;31.40;17.30;;;;;;;5.20;51.82;94851.53;5050367;28;20029;-75
2024/02/18 00:28:48;;;;;;;22.73;15.40;;;;;;;5.27;51.60;94873.22;5049335;28;20605;-75
2024/02/18 00:31:13;;;;;;;20.35;14.65;;;;;;;5.32;51.24;94860.09;5049071;28;20043;-74
2024/02/18 00:33:39;;;;;;;25.23;15.90;;;;;;;5.40;50.81;94872.78;5048845;28;20124;-75
2024/02/18 00:36:05;;;;;;;24.77;16.30;;;;;;;5.26;51.41;94861.09;5049031;28;20025;-75
2024/02/18 00:38:30;;;;;;;24.27;16.88;;;;;;;5.24;51.51;94863.97;5049382;28;20056;-76
2024/02/18 00:40:56;;;;;;;25.55;16.80;;;;;;;5.06;51.76;94841.44;5048930;28;20580;-75
2024/02/18 00:43:22;;;;;;;26.50;16.98;;;;;;;5.25;51.62;94862.13;5049133;28;20033;-75
2024/02/18 00:45:48;;;;;;;25.20;15.52;;;;;;;4.78;51.92;94811.97;5049616;28;20053;-76
2024/02/18 00:48:14;;;;;;;27.23;16.77;;;;;;;5.24;51.94;94868.44;5049932;28;20555;-75
2024/02/18 00:50:39;;;;;;;21.85;15.38;;;;;;;5.05;52.03;94850.41;5050314;28;20028;-75
2024/02/18 00:53:04;;;;;;;24.25;15.77;;;;;;;5.12;52.00;94874.72;5050027;28;20067;-75
2024/02/18 00:55:30;;;;;;;21.08;15.70;;;;;;;5.25;51.68;94870.84;5053458;28;20537;-75
2024/02/18 00:57:55;;;;;;;25.38;16.73;;;;;;;5.15;52.06;94876.03;5053124;28;20044;-74
2024/02/18 01:00:20;;;;;;;27.70;18.50;;;;;;;5.16;52.13;94869.72;5053594;28;20593;-75
2024/02/18 01:02:46;;;;;;;24.40;18.02;;;;;;;4.95;51.82;94862.69;5053626;28;20714;-75
2024/02/18 01:05:11;;;;;;;31.67;20.08;;;;;;;4.94;52.50;94854.00;5053347;28;20029;-75
2024/02/18 01:07:37;;;;;;;25.55;17.17;;;;;;;5.08;52.33;94863.09;5053104;28;20502;-75
2024/02/18 01:10:03;;;;;;;29.80;19.02;;;;;;;5.12;52.00;94866.81;5053071;28;20083;-75
2024/02/18 01:12:29;;;;;;;27.58;18.48;;;;;;;5.04;52.06;94851.44;5053335;28;20044;-75
2024/02/18 01:14:54;;;;;;;34.88;19.27;;;;;;;5.18;52.21;94853.66;5053429;28;20025;-75
2024/02/18 01:17:20;;;;;;;32.95;19.35;;;;;;;5.19;52.07;94858.66;5053523;28;20104;-75
2024/02/18 01:19:45;;;;;;;23.95;16.92;;;;;;;5.16;51.97;94855.75;5052745;28;20040;-75
2024/02/18 01:22:11;;;;;;;31.15;18.92;;;;;;;5.19;51.53;94855.25;5053104;28;20585;-75
2024/02/18 01:24:36;;;;;;;23.10;16.42;;;;;;;5.09;51.53;94838.28;5053070;28;20036;-75
2024/02/18 01:27:02;;;;;;;23.50;15.80;;;;;;;5.18;51.42;94848.38;5052737;28;20054;-75
2024/02/18 01:29:27;;;;;;;22.77;15.63;;;;;;;4.97;51.63;94819.25;5053387;28;20032;-75
2024/02/18 01:31:53;;;;;;;23.83;16.50;;;;;;;4.86;51.61;94811.50;5052922;28;20029;-75
2024/02/18 01:34:18;;;;;;;24.23;15.73;;;;;;;4.92;51.57;94829.75;5052405;28;20037;-75
2024/02/18 01:36:43;;;;;;;22.48;15.82;;;;;;;5.08;51.22;94844.63;5034913;28;20085;-75
2024/02/18 01:39:09;;;;;;;24.08;15.88;;;;;;;5.16;50.73;94845.19;5052441;28;20065;-75
2024/02/18 01:41:34;;;;;;;28.80;17.45;;;;;;;5.01;50.96;94841.41;5035152;28;20036;-75
2024/02/18 01:44:00;;;;;;;25.58;17.42;;;;;;;4.93;50.96;94846.34;5052468;28;20501;-75
2024/02/18 01:46:26;;;;;;;25.90;17.15;;;;;;;4.89;50.93;94846.06;5052490;28;20033;-76
2024/02/18 01:48:52;;;;;;;25.50;15.18;;;;;;;4.95;50.92;94846.88;5052355;28;20572;-75
2024/02/18 01:51:20;;;;;;;23.83;14.90;;;;;;;4.96;50.90;94848.47;5052546;28;20090;-76
2024/02/18 01:53:46;;;;;;;27.80;17.85;;;;;;;4.81;51.25;94820.16;5053096;28;20028;-75
2024/02/18 01:56:15;;;;;;;24.08;17.00;;;;;;;4.78;51.43;94847.03;5052468;28;20417;-75
2024/02/18 01:58:40;;;;;;;28.15;16.63;;;;;;;4.78;51.50;94849.66;5052501;28;20394;-75
2024/02/18 02:01:06;;;;;;;25.45;17.02;;;;;;;4.75;51.69;94849.38;5052160;28;20095;-75
2024/02/18 02:03:34;;;;;;;30.27;19.38;;;;;;;4.67;51.44;94837.44;5034357;28;20033;-75
2024/02/18 02:06:02;;;;;;;25.65;17.70;;;;;;;4.74;51.35;94851.22;5051044;28;20363;-75
2024/02/18 02:08:27;;;;;;;31.23;18.85;;;;;;;4.63;51.75;94862.72;5052382;28;20044;-75
2024/02/18 02:10:52;;;;;;;33.75;21.40;;;;;;;4.67;51.88;94864.59;5052119;28;20514;-75
2024/02/18 02:13:18;;;;;;;35.30;21.90;;;;;;;4.65;52.32;94868.50;5051719;28;20059;-75
2024/02/18 02:15:44;;;;;;;36.95;23.55;;;;;;;4.47;52.98;94859.13;5051928;28;20033;-75
2024/02/18 02:18:09;;;;;;;35.85;24.33;;;;;;;4.37;53.59;94863.50;5051634;28;20043;-75
2024/02/18 02:20:34;;;;;;;40.47;23.90;;;;;;;4.43;53.60;94873.06;5052094;28;20539;-75
2024/02/18 02:23:00;;;;;;;37.95;26.90;;;;;;;4.52;53.46;94867.09;5051872;28;20409;-75
2024/02/18 02:25:25;;;;;;;38.67;23.88;;;;;;;4.38;53.20;94854.56;5051889;28;20048;-75
2024/02/18 02:28:01;;;;;;;39.70;25.40;;;;;;;4.31;53.25;94857.38;5033909;28;20055;-75
2024/02/18 02:30:27;;;;;;;38.90;24.77;;;;;;;4.44;52.53;94878.09;5051780;28;20037;-75
2024/02/18 02:32:54;;;;;;;41.38;24.90;;;;;;;4.30;53.23;94863.72;5051775;28;20093;-72
2024/02/18 02:35:20;;;;;;;34.00;24.05;;;;;;;4.28;52.85;94858.66;5051782;28;20027;-75
2024/02/18 02:37:46;;;;;;;29.08;19.02;;;;;;;4.12;53.12;94866.63;5051712;28;20037;-75
2024/02/18 02:40:13;;;;;;;38.17;22.80;;;;;;;3.35;55.14;94858.84;5051088;28;20521;-75
2024/02/18 02:42:38;;;;;;;33.63;22.23;;;;;;;3.71;55.21;94892.50;5051285;28;20036;-75
2024/02/18 02:45:04;;;;;;;33.25;21.38;;;;;;;3.68;54.67;94850.88;5051438;28;20031;-75
2024/02/18 02:47:29;;;;;;;33.60;20.77;;;;;;;4.11;54.13;94881.63;5051871;28;20078;-75
2024/02/18 02:49:55;;;;;;;33.00;18.77;;;;;;;4.16;51.93;94876.44;5051229;28;20036;-75
2024/02/18 02:52:20;;;;;;;23.48;14.13;;;;;;;4.00;49.79;94823.88;5051078;28;20524;-75
2024/02/18 02:54:45;;;;;;;26.85;17.27;;;;;;;4.42;49.51;94882.00;5051320;28;20080;-76
2024/02/18 02:57:11;;;;;;;23.30;15.00;;;;;;;4.44;49.05;94864.13;5051413;28;20037;-75
2024/02/18 02:59:36;;;;;;;23.90;14.93;;;;;;;4.72;48.34;94877.03;5051572;28;20668;-75
2024/02/18 03:02:01;;;;;;;24.30;17.17;;;;;;;4.86;47.48;94877.41;5051171;28;20041;-75
2024/02/18 03:04:27;;;;;;;23.65;14.48;;;;;;;4.76;47.49;94882.59;5051161;28;20493;-75
2024/02/18 03:06:52;;;;;;;26.52;14.52;;;;;;;4.66;47.32;94855.09;5050933;28;20091;-75
2024/02/18 03:09:18;;;;;;;21.10;14.68;;;;;;;4.91;46.83;94875.59;5050973;28;20025;-75
2024/02/18 03:11:44;;;;;;;25.40;14.85;;;;;;;4.98;46.57;94881.47;5051356;28;20060;-75
2024/02/18 03:14:09;;;;;;;22.83;13.73;;;;;;;5.08;46.52;94892.09;5051041;28;20116;-75
2024/02/18 03:16:34;;;;;;;26.05;16.25;;;;;;;5.13;46.74;94886.88;5050772;28;20083;-75
2024/02/18 03:19:00;;;;;;;25.75;15.00;;;;;;;5.17;46.57;94865.25;5050814;28;20033;-75
2024/02/18 03:21:26;;;;;;;25.15;15.05;;;;;;;5.13;46.65;94864.97;5051176;28;20021;-75
2024/02/18 03:23:53;;;;;;;23.35;15.60;;;;;;;5.21;46.56;94877.69;5050782;28;20036;-74
2024/02/18 03:26:19;;;;;;;27.35;18.48;;;;;;;5.07;46.48;94848.31;5051273;28;20100;-75
2024/02/18 03:28:44;;;;;;;23.80;15.13;;;;;;;5.29;46.39;94887.75;5050299;28;20104;-75
2024/02/18 03:31:17;;;;;;;24.73;16.85;;;;;;;5.28;46.67;94888.81;5050622;28;20076;-75
2024/02/18 03:33:43;;;;;;;26.92;17.77;;;;;;;5.24;46.76;94892.19;5050846;28;20137;-75
2024/02/18 03:36:08;;;;;;;22.48;14.93;;;;;;;5.29;46.33;94868.47;5050459;28;20111;-75
2024/02/18 03:38:33;;;;;;;25.17;16.27;;;;;;;5.45;46.59;94896.56;5050545;28;20086;-74
2024/02/18 03:40:59;;;;;;;24.33;15.52;;;;;;;5.60;46.37;94903.78;5050790;28;20041;-75
2024/02/18 03:43:29;;;;;;;25.17;16.08;;;;;;;5.65;46.04;94909.88;5050209;28;20498;-75
2024/02/18 03:45:54;;;;;;;24.88;16.17;;;;;;;5.65;45.67;94906.44;5050875;28;20060;-75
2024/02/18 03:48:20;;;;;;;23.92;16.35;;;;;;;5.39;46.29;94887.03;5050540;28;20512;-75
2024/02/18 03:50:45;;;;;;;23.98;16.30;;;;;;;5.35;46.14;94885.94;5050892;28;20106;-75
2024/02/18 03:53:11;;;;;;;29.05;19.45;;;;;;;5.30;47.05;94899.09;5050285;28;20164;-75
2024/02/18 03:55:36;;;;;;;31.55;18.23;;;;;;;5.43;47.05;94901.31;5050346;28;20033;-75
2024/02/18 03:58:01;;;;;;;29.90;18.88;;;;;;;5.30;47.24;94888.53;5050349;28;20029;-75
2024/02/18 04:00:27;;;;;;;25.20;16.05;;;;;;;5.58;46.86;94907.47;5050232;28;20049;-75
2024/02/18 04:02:53;;;;;;;24.40;15.70;;;;;;;5.37;46.86;94886.50;5050169;28;20098;-73
2024/02/18 04:05:18;;;;;;;26.73;17.02;;;;;;;5.55;46.54;94891.34;5050795;28;20049;-75
2024/02/18 04:07:43;;;;;;;33.00;20.10;;;;;;;5.56;46.92;94908.78;5050316;28;20512;-75
2024/02/18 04:10:09;;;;;;;39.60;21.60;;;;;;;5.42;47.49;94907.63;5050107;28;20032;-75
2024/02/18 04:12:35;;;;;;;30.73;17.80;;;;;;;5.45;47.22;94902.63;5049973;28;20090;-75
2024/02/18 04:15:00;;;;;;;37.15;20.60;;;;;;;5.45;47.47;94915.81;5049873;28;20408;-75
2024/02/18 04:17:25;;;;;;;32.58;20.92;;;;;;;5.52;47.21;94907.69;5050651;28;20017;-75
2024/02/18 04:19:51;;;;;;;30.65;18.67;;;;;;;5.44;47.67;94910.78;5049648;28;20060;-75
2024/02/18 04:22:16;;;;;;;32.90;20.77;;;;;;;5.45;47.48;94912.41;5050295;28;20040;-75
2024/02/18 04:24:42;;;;;;;29.38;18.02;;;;;;;5.43;47.84;94919.78;5050229;28;20060;-75
2024/02/18 04:27:09;;;;;;;37.03;24.30;;;;;;;5.26;48.03;94896.19;5050017;28;20124;-75
2024/02/18 04:29:36;;;;;;;40.60;23.20;;;;;;;5.50;47.80;94915.06;5052854;28;20079;-75
2024/02/18 04:32:02;;;;;;;39.60;20.67;;;;;;;5.58;47.18;94912.75;5054038;28;20552;-75
2024/02/18 04:34:27;;;;;;;32.17;19.58;;;;;;;5.43;47.97;94914.50;5053796;28;20056;-75
2024/02/18 04:36:52;;;;;;;29.20;19.35;;;;;;;5.55;47.70;94912.47;5053858;28;20033;-75
2024/02/18 04:39:18;;;;;;;33.63;19.83;;;;;;;5.34;48.05;94906.25;5054044;28;20564;-75
2024/02/18 04:41:43;;;;;;;26.13;16.77;;;;;;;5.15;48.54;94889.22;5054039;28;20021;-75
2024/02/18 04:44:08;;;;;;;31.38;18.65;;;;;;;5.31;48.38;94901.50;5053414;28;20033;-75
2024/02/18 04:46:34;;;;;;;27.20;18.58;;;;;;;5.27;48.12;94875.88;5053508;28;20060;-75
2024/02/18 04:48:59;;;;;;;27.33;17.85;;;;;;;5.30;48.25;94894.63;5053591;28;20032;-75
2024/02/18 04:51:25;;;;;;;26.90;15.98;;;;;;;5.23;48.32;94882.72;5053863;28;20490;-75
2024/02/18 04:53:51;;;;;;;25.42;16.05;;;;;;;5.44;48.06;94894.97;5035743;28;20025;-75
2024/02/18 04:56:16;;;;;;;26.50;16.60;;;;;;;5.48;47.59;94885.53;5036321;28;20482;-75
2024/02/18 04:58:42;;;;;;;25.10;15.88;;;;;;;5.76;46.76;94903.63;5053313;28;20045;-75
2024/02/18 05:01:10;;;;;;;22.27;15.00;;;;;;;5.64;47.06;94900.38;5053470;28;20028;-75
2024/02/18 05:03:35;;;;;;;23.98;15.77;;;;;;;5.71;46.98;94900.94;5053123;28;20120;-75
2024/02/18 05:06:01;;;;;;;25.98;16.35;;;;;;;5.46;47.14;94882.31;5053030;28;20347;-75
2024/02/18 05:08:26;;;;;;;22.42;16.17;;;;;;;5.40;47.70;94892.06;5053569;28;20025;-75
2024/02/18 05:10:52;;;;;;;22.17;15.57;;;;;;;5.61;47.21;94898.25;5053259;28;20083;-75
2024/02/18 05:13:17;;;;;;;25.08;15.75;;;;;;;5.68;47.05;94890.88;5052765;28;20025;-75
2024/02/18 05:15:46;;;;;;;26.00;17.13;;;;;;;5.69;47.23;94902.25;5053147;28;20064;-74
2024/02/18 05:18:11;;;;;;;24.23;16.15;;;;;;;5.65;47.08;94885.34;5052938;28;20459;-75
2024/02/18 05:20:37;;;;;;;26.80;16.52;;;;;;;5.61;46.99;94892.97;5053667;28;20100;-75
2024/02/18 05:23:02;;;;;;;19.58;14.07;;;;;;;5.70;46.91;94893.28;5053111;28;20502;-75
2024/02/18 05:25:28;;;;;;;31.90;18.60;;;;;;;5.68;46.99;94912.00;5052837;28;20098;-75
2024/02/18 05:27:53;;;;;;;23.98;15.43;;;;;;;5.29;47.13;94868.47;5052833;28;20106;-75
2024/02/18 05:30:19;;;;;;;29.67;14.65;;;;;;;5.56;47.30;94899.03;5052722;28;20490;-75
2024/02/18 05:32:44;;;;;;;20.13;14.35;;;;;;;5.79;47.10;94918.94;5053272;28;20032;-74
2024/02/18 05:35:10;;;;;;;20.98;14.10;;;;;;;5.98;46.54;94916.66;5052786;28;20064;-75
2024/02/18 05:37:35;;;;;;;23.52;16.23;;;;;;;5.96;46.38;94914.28;5052357;28;20044;-75
2024/02/18 05:40:00;;;;;;;27.25;14.18;;;;;;;5.65;46.67;94875.56;5033424;28;20093;-75
2024/02/18 05:42:26;;;;;;;22.98;15.38;;;;;;;6.05;46.38;94919.88;5050935;28;20037;-75
2024/02/18 05:44:51;;;;;;;24.55;15.20;;;;;;;5.97;46.62;94923.78;5051217;28;20020;-75
2024/02/18 05:47:16;;;;;;;26.88;14.75;;;;;;;5.85;46.83;94912.63;5051600;28;20075;-75
2024/02/18 05:49:42;;;;;;;26.48;17.23;;;;;;;5.92;46.79;94929.03;5050358;28;20116;-75
2024/02/18 05:52:09;;;;;;;34.10;17.67;;;;;;;5.87;46.70;94909.75;5051659;28;20406;-75
2024/02/18 05:54:34;;;;;;;21.60;13.88;;;;;;;5.94;47.20;94929.59;5051386;28;20117;-75
2024/02/18 05:57:00;;;;;;;22.45;14.05;;;;;;;5.98;47.13;94943.84;5051804;28;20615;-75
2024/02/18 05:59:25;;;;;;;21.13;14.40;;;;;;;5.91;47.16;94940.66;5053099;28;20025;-75
2024/02/18 06:01:50;;;;;;;25.02;14.30;;;;;;;5.72;47.50;94928.94;5052118;28;20250;-75
2024/02/18 06:04:16;;;;;;;24.10;14.88;;;;;;;5.79;47.45;94950.63;5051776;28;20033;-74
2024/02/18 06:06:41;;;;;;;21.05;14.20;;;;;;;5.48;48.02;94902.13;5051880;28;20040;-75
2024/02/18 06:09:07;;;;;;;21.73;15.23;;;;;;;5.80;47.96;94951.41;5051659;28;20061;-75
2024/02/18 06:11:32;;;;;;;26.08;16.35;;;;;;;5.85;47.59;94944.31;5052257;28;20755;-75
2024/02/18 06:13:57;;;;;;;20.15;13.40;;;;;;;5.83;47.91;94950.91;5051782;28;20029;-75
2024/02/18 06:16:23;;;;;;;23.88;14.73;;;;;;;5.85;47.61;94960.16;5051703;28;20112;-75
2024/02/18 06:18:48;;;;;;;22.15;14.63;;;;;;;5.99;47.38;94966.59;5051688;28;20041;-75
2024/02/18 06:21:21;;;;;;;23.48;14.00;;;;;;;5.89;47.61;94950.69;5051459;28;20033;-75
2024/02/18 06:23:47;;;;;;;25.73;15.07;;;;;;;5.94;48.08;94966.56;5051478;28;20497;-75
2024/02/18 06:26:12;;;;;;;23.48;16.10;;;;;;;6.18;47.21;94968.81;5051112;28;20045;-75
2024/02/18 06:28:37;;;;;;;26.80;15.93;;;;;;;6.15;47.60;94967.47;5051411;28;20029;-75
2024/02/18 06:31:03;;;;;;;24.30;15.45;;;;;;;5.97;47.17;94920.34;5051680;28;20402;-75
2024/02/18 06:33:29;;;;;;;29.98;16.83;;;;;;;6.26;46.88;94955.13;5051703;28;20063;-75
2024/02/18 06:35:54;;;;;;;26.65;16.90;;;;;;;6.38;47.05;94974.19;5051499;28;20048;-74
2024/02/18 06:38:20;;;;;;;27.23;16.88;;;;;;;6.28;46.92;94969.66;5051306;28;20114;-75
2024/02/18 06:40:46;;;;;;;26.02;17.55;;;;;;;6.43;46.65;94980.28;5050933;28;20037;-75
2024/02/18 06:43:11;;;;;;;27.27;18.10;;;;;;;6.28;47.06;94980.22;5050761;28;20106;-75
2024/02/18 06:45:36;;;;;;;35.90;20.55;;;;;;;6.52;46.71;94979.78;5051173;28;20044;-75
2024/02/18 06:48:02;;;;;;;26.83;18.02;;;;;;;6.17;47.06;94973.28;5050635;28;20541;-74
2024/02/18 06:50:27;;;;;;;30.65;19.05;;;;;;;6.20;47.61;94987.84;5051675;28;20032;-75
2024/02/18 06:52:53;;;;;;;35.08;20.75;;;;;;;6.09;48.56;94986.97;5050882;28;20041;-76
2024/02/18 06:55:18;;;;;;;34.63;21.52;;;;;;;6.15;49.06;94985.94;5051282;28;20086;-75
2024/02/18 06:57:44;;;;;;;38.30;24.63;;;;;;;6.07;50.71;94983.00;5051347;28;20033;-74
2024/02/18 07:00:10;;;;;;;40.83;25.55;;;;;;;5.93;51.54;94987.91;5050907;28;20394;-75
2024/02/18 07:02:36;;;;;;;44.10;27.05;;;;;;;5.78;53.10;94970.13;5051736;28;20052;-75
2024/02/18 07:05:03;;;;;;;40.83;27.20;;;;;;;5.83;53.66;94991.28;5051027;28;20576;-75
2024/02/18 07:07:28;;;;;;;39.42;25.90;;;;;;;5.79;54.56;94989.41;5051197;28;20033;-75
2024/02/18 07:09:54;;;;;;;38.58;25.98;;;;;;;5.71;54.70;94997.81;5050906;28;20082;-75
2024/02/18 07:12:19;;;;;;;46.35;28.02;;;;;;;5.73;54.94;94988.59;5051240;28;20028;-75
2024/02/18 07:14:44;;;;;;;44.75;29.08;;;;;;;5.34;56.06;94961.66;5051775;28;20500;-74
2024/02/18 07:17:10;;;;;;;43.72;28.50;;;;;;;5.42;56.54;94992.06;5050733;28;20556;-74
2024/02/18 07:19:35;;;;;;;45.08;26.05;;;;;;;5.59;56.16;94998.00;5050924;28;20035;-75
2024/02/18 07:22:01;;;;;;;40.13;25.10;;;;;;;5.47;56.21;95000.03;5050926;28;20029;-75
2024/02/18 07:24:26;;;;;;;42.40;25.98;;;;;;;5.35;56.26;94980.91;5051025;28;20025;-75
2024/02/18 07:26:52;;;;;;;44.38;26.35;;;;;;;5.52;56.02;94997.44;5050640;28;20104;-74
2024/02/18 07:29:17;;;;;;;42.53;26.77;;;;;;;5.77;55.47;94994.19;5050678;28;20040;-75
2024/02/18 07:31:42;;;;;;;43.78;26.02;;;;;;;5.82;55.10;94999.50;5050428;28;20079;-75
2024/02/18 07:34:08;;;;;;;35.33;23.85;;;;;;;5.85;54.51;94997.13;5050773;28;20514;-74
2024/02/18 07:36:33;;;;;;;38.50;23.88;;;;;;;5.80;54.20;94996.28;5050418;28;20029;-74
2024/02/18 07:38:59;;;;;;;40.20;23.30;;;;;;;5.91;53.92;95001.41;5050300;28;20049;-75
2024/02/18 07:41:25;;;;;;;35.85;22.60;;;;;;;5.84;54.34;94995.53;5050893;28;20085;-74
2024/02/18 07:43:51;;;;;;;36.28;23.75;;;;;;;6.05;53.57;95003.59;5050551;28;20404;-76
2024/02/18 07:46:18;;;;;;;39.72;24.55;;;;;;;5.90;53.72;94999.00;5050455;28;20064;-75
2024/02/18 07:48:43;;;;;;;34.90;23.30;;;;;;;5.91;53.90;95006.69;5032563;28;20466;-75
2024/02/18 07:51:09;;;;;;;33.88;22.10;;;;;;;6.11;54.22;95006.00;5050513;28;20056;-75
2024/02/18 07:53:34;;;;;;;36.15;22.63;;;;;;;6.04;53.91;94988.78;5050732;28;20025;-75
2024/02/18 07:56:01;;;;;;;38.55;23.70;;;;;;;6.13;54.17;95003.88;5050316;28;20525;-75
2024/02/18 07:58:26;;;;;;;39.95;25.17;;;;;;;6.09;54.95;94972.97;5050001;28;20037;-75
2024/02/18 08:00:52;;;;;;;37.70;22.77;;;;;;;6.09;55.86;94989.59;5050483;28;20034;-75
2024/02/18 08:03:17;;;;;;;35.83;23.58;;;;;;;6.25;56.23;94995.81;5049568;28;20102;-75
2024/02/18 08:05:42;;;;;;;36.70;22.95;;;;;;;5.96;57.13;94980.31;5032847;28;20017;-75
2024/02/18 08:08:08;;;;;;;33.67;21.38;;;;;;;6.04;56.65;94986.13;5050131;28;20043;-75
2024/02/18 08:10:33;;;;;;;40.20;23.92;;;;;;;6.04;57.00;95001.97;5032313;28;20132;-75
2024/02/18 08:12:59;;;;;;;38.35;22.63;;;;;;;6.10;56.83;95003.63;5049219;28;20032;-75
2024/02/18 08:15:24;;;;;;;39.65;23.92;;;;;;;6.16;56.74;95005.28;5049405;28;20032;-75
2024/02/18 08:17:50;;;;;;;33.78;20.92;;;;;;;6.11;56.99;94986.72;5049556;28;20033;-74
2024/02/18 08:20:15;;;;;;;36.33;23.63;;;;;;;5.94;56.92;94995.59;5050450;28;20092;-75
2024/02/18 08:22:41;;;;;;;35.35;21.77;;;;;;;6.22;56.02;95001.59;5049601;28;20597;-75
2024/02/18 08:25:06;;;;;;;32.58;21.45;;;;;;;5.95;56.75;94977.91;5050009;28;20041;-75
2024/02/18 08:27:32;;;;;;;37.85;23.35;;;;;;;6.00;57.04;95005.16;5049776;28;20037;-75
2024/02/18 08:29:57;;;;;;;35.40;22.70;;;;;;;5.82;57.61;94997.63;5049412;28;20035;-75
2024/02/18 08:32:23;;;;;;;39.58;21.92;;;;;;;6.00;57.29;95009.63;5032475;28;20100;-75
2024/02/18 08:34:48;;;;;;;37.70;22.52;;;;;;;5.96;57.88;95025.19;5049981;28;20040;-75
2024/02/18 08:37:13;;;;;;;37.17;23.10;;;;;;;5.79;58.48;95023.75;5049752;28;20033;-75
2024/02/18 08:39:39;;;;;;;38.17;22.55;;;;;;;5.71;58.99;95022.38;5049073;28;20041;-75
2024/02/18 08:42:04;;;;;;;37.13;23.25;;;;;;;5.73;59.06;95004.44;5049186;28;20486;-75
2024/02/18 08:44:30;;;;;;;40.70;23.27;;;;;;;5.69;59.33;95013.91;5050188;28;20025;-74
2024/02/18 08:46:55;;;;;;;39.63;23.77;;;;;;;5.87;59.20;95015.38;5049719;28;20394;-75
2024/02/18 08:49:22;;;;;;;33.22;21.85;;;;;;;6.02;58.41;95024.16;5049597;28;20544;-75
2024/02/18 08:51:48;;;;;;;36.13;21.30;;;;;;;6.18;57.06;95013.72;5049638;28;20037;-75
2024/02/18 08:54:13;;;;;;;37.10;21.95;;;;;;;6.28;57.14;95025.13;5049920;28;20025;-75
2024/02/18 08:56:39;;;;;;;35.15;23.13;;;;;;;6.22;57.12;95017.44;5049981;28;20025;-75
2024/02/18 08:59:04;;;;;;;37.40;23.08;;;;;;;6.19;57.31;95020.59;5049770;28;20510;-75
2024/02/18 09:01:29;;;;;;;38.05;22.25;;;;;;;6.03;58.44;95014.41;5049493;28;20033;-75
2024/02/18 09:03:55;;;;;;;32.97;21.42;;;;;;;5.99;58.64;95032.59;5049453;28;20107;-75
2024/02/18 09:06:20;;;;;;;32.80;20.75;;;;;;;6.02;58.88;95022.59;5049644;28;20025;-75
2024/02/18 09:08:45;;;;;;;36.15;21.73;;;;;;;5.85;59.20;95026.16;5049948;28;20013;-75
2024/02/18 09:11:11;;;;;;;35.00;22.40;;;;;;;5.64;59.66;95013.06;5049403;28;20296;-75
2024/02/18 09:13:36;;;;;;;41.15;24.88;;;;;;;5.73;60.09;95041.38;5049812;28;20118;-75
2024/02/18 09:16:02;;;;;;;31.50;21.95;;;;;;;5.82;59.88;95039.88;5051994;28;20516;-75
2024/02/18 09:18:27;;;;;;;43.80;26.02;;;;;;;5.82;60.21;95045.13;5053343;28;20040;-75
2024/02/18 09:20:52;;;;;;;42.20;24.80;;;;;;;5.88;60.04;95038.84;5053045;28;20028;-73
2024/02/18 09:23:18;;;;;;;40.75;25.00;;;;;;;5.83;60.53;95020.34;5052208;28;20021;-74
2024/02/18 09:25:44;;;;;;;42.80;25.48;;;;;;;5.76;61.33;95029.53;5053237;28;20033;-75
2024/02/18 09:28:09;;;;;;;46.90;27.20;;;;;;;5.74;62.12;95037.69;5052683;28;20144;-75
2024/02/18 09:30:38;;;;;;;42.22;26.63;;;;;;;5.88;61.80;95044.13;5052637;28;20044;-75
2024/02/18 09:33:06;;;;;;;42.92;27.75;;;;;;;6.00;61.56;95036.03;5052605;28;20025;-74
2024/02/18 09:35:31;;;;;;;47.97;26.13;;;;;;;5.85;61.55;95038.56;5053354;28;20021;-75
2024/02/18 09:37:57;;;;;;;40.70;24.92;;;;;;;5.96;60.92;95004.06;5052529;28;20379;-74
2024/02/18 09:40:22;;;;;;;35.13;21.52;;;;;;;6.18;59.51;95034.84;5052308;28;20041;-74
2024/02/18 09:42:50;;;;;;;36.47;21.23;;;;;;;6.02;59.77;95021.53;5052594;28;20037;-75
2024/02/18 09:45:18;;;;;;;33.88;21.52;;;;;;;6.08;60.07;95021.56;5052836;28;20033;-75
2024/02/18 09:47:47;;;;;;;29.67;20.90;;;;;;;6.13;59.27;95011.00;5052938;28;20016;-75
2024/02/18 09:50:13;;;;;;;30.77;21.50;;;;;;;6.11;60.09;95027.13;5052886;28;20045;-75
2024/02/18 09:52:44;;;;;;;33.40;22.13;;;;;;;6.04;60.60;95038.97;5052388;28;20032;-75
2024/02/18 09:55:10;;;;;;;40.75;23.63;;;;;;;6.05;60.56;95028.16;5052424;28;20036;-75
2024/02/18 09:57:38;;;;;;;36.97;21.02;;;;;;;6.19;59.67;95013.47;5052391;28;20163;-75
2024/02/18 10:00:05;;;;;;;34.50;23.27;;;;;;;6.19;59.80;95008.19;5051850;28;20063;-75
2024/02/18 10:02:33;;;;;;;34.17;22.65;;;;;;;6.35;59.39;95003.78;5052553;28;20017;-75
2024/02/18 10:04:58;;;;;;;31.70;21.50;;;;;;;6.39;59.21;95007.50;5052326;28;20514;-74
2024/02/18 10:07:24;;;;;;;32.65;21.85;;;;;;;6.57;58.94;95025.53;5051765;28;20036;-75
2024/02/18 10:09:50;;;;;;;33.30;20.48;;;;;;;6.15;59.46;94996.53;5052079;28;20025;-75
2024/02/18 10:12:15;;;;;;;31.75;21.48;;;;;;;6.48;58.50;95013.88;5052120;28;20441;-75
2024/02/18 10:14:41;;;;;;;39.15;24.33;;;;;;;6.61;58.50;95013.38;5052460;28;20027;-75
2024/02/18 10:17:06;;;;;;;34.67;24.08;;;;;;;6.69;58.13;95010.25;5052150;28;20044;-75
2024/02/18 10:19:33;;;;;;;33.35;21.73;;;;;;;6.62;57.82;94970.03;5051578;28;20535;-75
2024/02/18 10:22:00;;;;;;;35.13;21.88;;;;;;;6.98;57.00;94996.59;5051696;28;20037;-75
2024/02/18 10:24:26;;;;;;;40.97;23.92;;;;;;;7.13;56.53;94980.75;5051972;28;20048;-75
2024/02/18 10:26:54;;;;;;;29.60;21.33;;;;;;;7.31;56.16;94998.75;5051126;28;20490;-75
2024/02/18 10:29:20;;;;;;;29.80;18.50;;;;;;;7.43;55.26;94987.91;5052498;28;20074;-74
2024/02/18 10:31:45;;;;;;;30.25;19.55;;;;;;;7.41;54.72;94985.53;5051707;28;20515;-75
2024/02/18 10:34:11;;;;;;;29.85;20.95;;;;;;;7.32;55.00;94984.47;5051600;28;20040;-75
2024/02/18 10:36:36;;;;;;;33.67;23.45;;;;;;;7.32;55.22;94958.00;5051380;28;20033;-75
2024/02/18 10:39:12;;;;;;;29.48;20.45;;;;;;;7.23;55.38;94955.09;5051143;28;20049;-74
2024/02/18 10:41:45;;;;;;;36.38;22.92;;;;;;;7.11;56.21;94972.25;5052069;28;20036;-75
2024/02/18 10:44:17;;;;;;;32.22;20.52;;;;;;;7.14;55.32;94940.00;5051623;28;20044;-75
2024/02/18 10:46:45;;;;;;;30.85;20.55;;;;;;;7.15;55.10;94968.03;5051437;28;20093;-75
2024/02/18 10:49:50;;;;;;;34.55;20.85;;;;;;;7.20;55.97;94954.81;5051331;28;20040;-74
2024/02/18 10:52:28;;;;;;;41.72;23.58;;;;;;;7.37;55.17;94960.66;5011393;28;20044;-75
2024/02/18 10:55:17;;;;;;;29.15;19.17;;;;;;;7.42;54.60;94946.63;5051572;28;20037;-75
2024/02/18 10:57:54;;;;;;;28.92;18.60;;;;;;;7.15;54.04;94926.50;5051326;28;20033;-75
2024/02/18 11:00:23;;;;;;;28.40;18.65;;;;;;;7.36;54.31;94953.78;5051362;28;20044;-73
2024/02/18 11:03:11;;;;;;;28.23;18.65;;;;;;;7.47;53.84;94947.41;5051171;28;20032;-74
2024/02/18 11:05:38;;;;;;;30.88;18.02;;;;;;;7.25;54.16;94929.16;5051352;28;20033;-75
2024/02/18 11:08:05;;;;;;;29.90;19.42;;;;;;;7.40;54.26;94948.72;5050205;28;20092;-74
2024/02/18 11:10:31;;;;;;;27.73;17.70;;;;;;;7.24;54.55;94955.88;5050490;28;20052;-75
2024/02/18 11:12:58;;;;;;;26.70;18.60;;;;;;;7.08;55.00;94954.28;5050231;28;20068;-75
2024/02/18 11:15:24;;;;;;;29.63;18.92;;;;;;;6.95;55.49;94957.41;5050517;28;20414;-75
2024/02/18 11:17:50;;;;;;;28.45;19.95;;;;;;;6.94;55.55;94938.13;5050186;28;20028;-74
2024/02/18 11:20:17;;;;;;;30.70;21.27;;;;;;;6.98;55.46;94928.63;5051516;28;20047;-75